createdAt,value
2018-08-17T00:00:33.631Z,22.34
2018-08-17T00:03:03.086Z,22.34
2018-08-17T00:05:31.509Z,22.29
2018-08-17T00:08:00.075Z,22.28
2018-08-17T00:10:28.577Z,22.31
2018-08-17T00:12:57.374Z,22.26
2018-08-17T00:15:25.948Z,22.18
2018-08-17T00:17:55.053Z,22.15
2018-08-17T00:20:23.591Z,22.12
2018-08-17T00:22:52.012Z,22.12
2018-08-17T00:25:21.472Z,22.15
2018-08-17T00:27:49.996Z,22.22
2018-08-17T00:30:18.536Z,22.25
2018-08-17T00:32:47.021Z,22.28
2018-08-17T00:35:16.177Z,22.23
2018-08-17T00:37:44.833Z,22.22
2018-08-17T00:40:13.639Z,22.18
2018-08-17T00:42:42.615Z,22.21
2018-08-17T00:45:11.440Z,22.25
2018-08-17T00:47:40.327Z,22.25
2018-08-17T00:50:08.776Z,22.22
2018-08-17T00:52:37.280Z,22.26
2018-08-17T00:55:05.940Z,22.24
2018-08-17T00:57:34.391Z,22.22
2018-08-17T01:00:02.933Z,22.08
2018-08-17T01:02:31.422Z,22.04
2018-08-17T01:04:59.892Z,22.06
2018-08-17T01:07:28.345Z,22.05
2018-08-17T01:09:56.931Z,22.07
2018-08-17T01:12:25.459Z,22.04
2018-08-17T01:14:54.069Z,22.05
2018-08-17T01:17:22.768Z,22.05
2018-08-17T01:19:51.302Z,21.98
2018-08-17T01:22:19.802Z,22.02
2018-08-17T01:24:48.291Z,22.02
2018-08-17T01:27:16.796Z,22.02
2018-08-17T01:29:45.659Z,21.97
2018-08-17T01:32:14.042Z,21.91
2018-08-17T01:34:42.744Z,21.87
2018-08-17T01:37:11.230Z,21.88
2018-08-17T01:39:39.796Z,21.89
2018-08-17T01:42:08.277Z,21.85
2018-08-17T01:49:14.157Z,21.79
2018-08-17T01:51:42.612Z,21.85
2018-08-17T01:54:11.132Z,21.87
2018-08-17T01:56:39.613Z,21.81
2018-08-17T01:59:08.098Z,21.71
2018-08-17T02:01:36.725Z,21.69
2018-08-17T02:04:05.307Z,21.63
2018-08-17T02:06:33.779Z,21.58
2018-08-17T02:09:02.365Z,21.58
2018-08-17T02:11:30.830Z,21.62
2018-08-17T02:14:00.746Z,21.57
2018-08-17T02:16:29.592Z,21.62
2018-08-17T02:18:58.044Z,21.64
2018-08-17T02:21:27.471Z,21.70
2018-08-17T02:23:56.700Z,21.70
2018-08-17T02:26:26.024Z,21.69
2018-08-17T02:28:54.442Z,21.65
2018-08-17T02:31:22.970Z,21.57
2018-08-17T02:33:51.474Z,21.53
2018-08-17T02:36:19.924Z,21.54
2018-08-17T02:38:48.333Z,21.52
2018-08-17T02:41:16.843Z,21.47
2018-08-17T02:43:45.333Z,21.48
2018-08-17T02:46:13.834Z,21.47
2018-08-17T02:48:42.282Z,21.43
2018-08-17T02:51:10.742Z,21.41
2018-08-17T02:53:39.175Z,21.40
2018-08-17T02:56:07.699Z,21.38
2018-08-17T02:58:36.249Z,21.37
2018-08-17T03:01:04.763Z,21.35
2018-08-17T03:03:33.157Z,21.31
2018-08-17T03:06:01.646Z,21.25
2018-08-17T03:08:30.077Z,21.27
2018-08-17T03:10:58.694Z,21.23
2018-08-17T03:13:27.166Z,21.26
2018-08-17T03:15:55.677Z,21.27
2018-08-17T03:18:24.250Z,21.25
2018-08-17T03:20:52.635Z,21.23
2018-08-17T03:23:21.048Z,21.21
2018-08-17T03:25:49.451Z,21.19
2018-08-17T03:28:17.908Z,21.16
2018-08-17T03:30:46.447Z,21.14
2018-08-17T03:33:14.874Z,21.09
2018-08-17T03:35:43.289Z,21.13
2018-08-17T03:38:11.876Z,21.09
2018-08-17T03:40:40.868Z,21.07
2018-08-17T03:43:09.740Z,21.04
2018-08-17T03:45:38.259Z,21.03
2018-08-17T03:48:07.361Z,21.00
2018-08-17T03:50:35.841Z,21.02
2018-08-17T03:53:04.999Z,21.01
2018-08-17T03:55:33.466Z,21.02
2018-08-17T03:58:02.912Z,21.04
2018-08-17T04:00:31.361Z,21.03
2018-08-17T04:02:59.809Z,21.03
2018-08-17T04:05:28.235Z,20.99
2018-08-17T04:07:56.673Z,20.98
2018-08-17T04:10:25.198Z,20.93
2018-08-17T04:12:53.652Z,20.94
2018-08-17T04:15:23.393Z,20.87
2018-08-17T04:17:52.038Z,20.85
2018-08-17T04:20:20.682Z,20.84
2018-08-17T04:22:49.509Z,20.80
2018-08-17T04:25:18.272Z,20.75
2018-08-17T04:27:47.027Z,20.83
2018-08-17T04:30:15.488Z,20.80
2018-08-17T04:32:44.070Z,20.84
2018-08-17T04:35:12.669Z,20.74
2018-08-17T04:37:41.212Z,20.68
2018-08-17T04:40:09.724Z,20.58
2018-08-17T04:42:38.800Z,20.47
2018-08-17T04:45:08.184Z,20.42
2018-08-17T04:47:37.495Z,20.33
2018-08-17T04:50:08.006Z,20.37
2018-08-17T04:52:36.468Z,20.40
2018-08-17T04:55:04.972Z,20.36
2018-08-17T04:57:34.137Z,20.39
2018-08-17T05:00:02.665Z,20.40
2018-08-17T05:02:32.708Z,20.43
2018-08-17T05:05:01.096Z,20.41
2018-08-17T05:07:30.144Z,20.43
2018-08-17T05:09:58.573Z,20.37
2018-08-17T05:12:27.095Z,20.28
2018-08-17T05:14:56.618Z,20.27
2018-08-17T05:17:25.146Z,20.27
2018-08-17T05:19:54.317Z,20.26
2018-08-17T05:22:24.056Z,20.25
2018-08-17T05:24:52.617Z,20.26
2018-08-17T05:27:21.632Z,20.23
2018-08-17T05:29:50.145Z,20.17
2018-08-17T05:32:18.635Z,20.10
2018-08-17T05:34:47.113Z,20.12
2018-08-17T05:37:16.065Z,20.13
2018-08-17T05:39:44.529Z,20.18
2018-08-17T05:42:15.417Z,20.09
2018-08-17T05:44:44.905Z,20.04
2018-08-17T05:47:13.425Z,20.03
2018-08-17T05:49:44.062Z,20.00
2018-08-17T05:52:12.684Z,19.98
2018-08-17T05:54:41.197Z,20.02
2018-08-17T05:57:10.410Z,20.12
2018-08-17T05:59:39.637Z,20.19
2018-08-17T06:02:08.173Z,20.21
2018-08-17T06:04:36.587Z,20.19
2018-08-17T06:07:06.096Z,20.20
2018-08-17T06:09:35.716Z,20.15
2018-08-17T06:12:04.356Z,20.15
2018-08-17T06:14:32.863Z,20.18
2018-08-17T06:17:01.507Z,20.16
2018-08-17T06:19:30.061Z,20.11
2018-08-17T06:21:58.979Z,20.07
2018-08-17T06:24:27.396Z,20.08
2018-08-17T06:26:56.784Z,20.11
2018-08-17T06:29:25.462Z,20.19
2018-08-17T06:31:54.171Z,20.24
2018-08-17T06:34:22.688Z,20.28
2018-08-17T06:36:51.243Z,20.28
2018-08-17T06:39:20.215Z,20.32
2018-08-17T06:41:48.760Z,20.26
2018-08-17T06:44:17.212Z,20.34
2018-08-17T06:46:45.853Z,20.48
2018-08-17T06:49:14.289Z,20.55
2018-08-17T06:51:43.098Z,20.70
2018-08-17T06:54:11.601Z,20.80
2018-08-17T06:56:40.149Z,20.95
2018-08-17T06:59:08.747Z,21.09
2018-08-17T07:01:37.206Z,21.19
2018-08-17T07:04:06.555Z,21.25
2018-08-17T07:06:36.765Z,21.28
2018-08-17T07:09:07.677Z,21.21
2018-08-17T07:11:36.667Z,21.20
2018-08-17T07:14:07.506Z,21.29
2018-08-17T07:16:37.307Z,21.31
2018-08-17T07:19:05.729Z,21.27
2018-08-17T07:21:35.053Z,21.24
2018-08-17T07:24:03.904Z,21.24
2018-08-17T07:26:33.205Z,21.31
2018-08-17T07:29:02.317Z,21.38
2018-08-17T07:31:31.109Z,21.37
2018-08-17T07:33:59.547Z,21.38
2018-08-17T07:36:28.839Z,21.46
2018-08-17T07:38:57.258Z,21.48
2018-08-17T07:41:25.795Z,21.55
2018-08-17T07:43:55.086Z,21.68
2018-08-17T07:46:25.317Z,21.83
2018-08-17T07:48:56.128Z,21.94
2018-08-17T07:51:24.784Z,21.99
2018-08-17T07:53:53.414Z,22.05
2018-08-17T07:56:22.800Z,22.08
2018-08-17T07:58:51.269Z,22.22
2018-08-17T08:01:19.888Z,22.34
2018-08-17T08:03:49.948Z,22.38
2018-08-17T08:06:18.409Z,22.49
2018-08-17T08:08:46.926Z,22.60
2018-08-17T08:11:15.441Z,22.67
2018-08-17T08:13:45.412Z,22.79
2018-08-17T08:16:14.596Z,22.81
2018-08-17T08:18:44.072Z,22.91
2018-08-17T08:21:13.140Z,23.02
2018-08-17T08:23:41.587Z,23.10
2018-08-17T08:26:11.360Z,23.14
2018-08-17T08:28:39.864Z,23.24
2018-08-17T08:31:08.354Z,23.34
2018-08-17T08:33:36.808Z,23.36
2018-08-17T08:36:05.280Z,23.44
2018-08-17T08:38:34.664Z,23.47
2018-08-17T08:41:03.710Z,23.47
2018-08-17T08:43:33.165Z,23.46
2018-08-17T08:46:02.675Z,23.45
2018-08-17T08:48:32.539Z,23.49
2018-08-17T08:51:01.863Z,23.53
2018-08-17T08:53:30.823Z,23.59
2018-08-17T08:56:00.355Z,23.67
2018-08-17T08:58:28.808Z,23.71
2018-08-17T09:00:58.000Z,23.75
2018-08-17T09:03:26.497Z,23.80
2018-08-17T09:05:55.920Z,23.85
2018-08-17T09:08:24.566Z,24.00
2018-08-17T09:10:54.263Z,24.20
2018-08-17T09:13:24.439Z,24.35
2018-08-17T09:15:52.948Z,24.44
2018-08-17T09:18:21.965Z,24.39
2018-08-17T09:20:51.484Z,24.48
2018-08-17T09:23:20.710Z,24.63
2018-08-17T09:25:49.406Z,24.73
2018-08-17T09:28:18.192Z,24.72
2018-08-17T09:30:46.720Z,24.75
2018-08-17T09:33:16.219Z,24.68
2018-08-17T09:35:45.730Z,24.64
2018-08-17T09:38:16.359Z,24.66
2018-08-17T09:40:44.858Z,24.65
2018-08-17T09:43:13.368Z,24.66
2018-08-17T09:45:43.668Z,24.68
2018-08-17T09:48:13.328Z,24.82
2018-08-17T09:50:41.789Z,24.86
2018-08-17T09:53:10.867Z,24.88
2018-08-17T09:55:39.836Z,24.94
2018-08-17T09:58:08.491Z,24.98
2018-08-17T10:00:40.408Z,24.90
2018-08-17T10:03:13.520Z,24.83
2018-08-17T10:05:43.317Z,24.85
2018-08-17T10:08:17.571Z,24.88
2018-08-17T10:10:45.993Z,24.86
2018-08-17T10:13:15.157Z,24.89
2018-08-17T10:15:45.601Z,24.84
2018-08-17T10:18:15.989Z,24.95
2018-08-17T10:20:44.749Z,25.15
2018-08-17T10:23:19.647Z,25.25
2018-08-17T10:25:48.135Z,25.44
2018-08-17T10:28:17.637Z,25.70
2018-08-17T10:30:46.059Z,25.76
2018-08-17T10:33:14.554Z,25.68
2018-08-17T10:35:44.606Z,25.46
2018-08-17T10:38:13.029Z,25.50
2018-08-17T10:40:41.733Z,25.51
2018-08-17T10:43:10.368Z,25.42
2018-08-17T10:45:38.794Z,25.34
2018-08-17T10:48:07.378Z,25.53
2018-08-17T10:50:37.197Z,25.71
2018-08-17T10:53:06.106Z,25.74
2018-08-17T10:55:41.512Z,25.74
2018-08-17T10:58:12.501Z,25.72
2018-08-17T11:00:41.018Z,25.71
2018-08-17T11:03:11.472Z,25.62
2018-08-17T11:05:41.455Z,25.48
2018-08-17T11:08:10.844Z,25.34
2018-08-17T11:10:40.912Z,25.37
2018-08-17T11:13:09.469Z,25.41
2018-08-17T11:15:37.984Z,25.55
2018-08-17T11:18:06.698Z,25.71
2018-08-17T11:20:35.345Z,25.81
2018-08-17T11:23:04.014Z,25.68
2018-08-17T11:25:32.495Z,25.69
2018-08-17T11:28:01.148Z,25.80
2018-08-17T11:30:30.315Z,25.82
2018-08-17T11:32:59.254Z,25.88
2018-08-17T11:35:28.378Z,25.90
2018-08-17T11:37:58.274Z,25.76
2018-08-17T11:40:28.917Z,25.78
2018-08-17T11:42:57.397Z,25.85
2018-08-17T11:45:27.022Z,26.03
2018-08-17T11:47:56.629Z,26.08
2018-08-17T11:50:26.256Z,26.22
2018-08-17T11:52:59.265Z,26.38
2018-08-17T11:55:31.235Z,26.39
2018-08-17T11:57:59.775Z,26.42
2018-08-17T12:00:34.372Z,26.40
2018-08-17T12:03:02.912Z,26.41
2018-08-17T12:05:31.705Z,26.47
2018-08-17T12:08:00.322Z,26.32
2018-08-17T12:10:28.859Z,26.17
2018-08-17T12:13:03.559Z,25.98
2018-08-17T12:15:37.218Z,25.67
2018-08-17T12:18:07.014Z,25.87
2018-08-17T12:20:36.528Z,26.07
2018-08-17T12:23:05.426Z,26.03
2018-08-17T12:25:45.536Z,25.90
2018-08-17T12:28:14.097Z,25.49
2018-08-17T12:30:43.300Z,25.41
2018-08-17T12:33:12.788Z,25.35
2018-08-17T12:35:42.538Z,25.45
2018-08-17T12:38:14.912Z,25.63
2018-08-17T12:40:53.887Z,25.77
2018-08-17T12:43:33.377Z,25.61
2018-08-17T12:46:02.750Z,25.47
2018-08-17T12:48:31.720Z,25.51
2018-08-17T12:51:05.379Z,25.49
2018-08-17T12:53:34.522Z,25.39
2018-08-17T12:56:03.048Z,25.57
2018-08-17T12:58:31.606Z,25.69
2018-08-17T13:01:00.375Z,25.35
2018-08-17T13:03:28.886Z,25.33
2018-08-17T13:05:57.419Z,25.34
2018-08-17T13:08:27.047Z,25.38
2018-08-17T13:10:58.794Z,25.51
2018-08-17T13:13:28.478Z,25.55
2018-08-17T13:16:02.350Z,25.58
2018-08-17T13:18:33.210Z,25.85
2018-08-17T13:21:02.236Z,25.40
2018-08-17T13:23:31.988Z,25.15
2018-08-17T13:26:01.722Z,25.10
2018-08-17T13:28:30.407Z,24.99
2018-08-17T13:31:00.179Z,25.10
2018-08-17T13:33:28.698Z,25.33
2018-08-17T13:35:57.304Z,25.38
2018-08-17T13:38:25.867Z,25.33
2018-08-17T13:40:54.917Z,25.40
2018-08-17T13:43:25.437Z,25.38
2018-08-17T13:45:54.014Z,25.53
2018-08-17T13:48:23.165Z,25.53
2018-08-17T13:50:54.473Z,25.51
2018-08-17T13:53:24.029Z,25.42
2018-08-17T13:55:54.613Z,25.56
2018-08-17T13:58:25.244Z,25.60
2018-08-17T14:00:55.738Z,25.76
2018-08-17T14:03:25.320Z,25.42
2018-08-17T14:05:53.814Z,25.32
2018-08-17T14:08:24.866Z,25.28
2018-08-17T14:10:53.900Z,25.46
2018-08-17T14:13:23.388Z,25.47
2018-08-17T14:15:52.481Z,25.66
2018-08-17T14:18:21.062Z,25.80
2018-08-17T14:20:49.640Z,25.81
2018-08-17T14:23:20.129Z,25.95
2018-08-17T14:25:48.798Z,26.01
2018-08-17T14:28:17.339Z,25.62
2018-08-17T14:30:47.269Z,25.51
2018-08-17T14:33:16.734Z,25.41
2018-08-17T14:35:48.687Z,25.58
2018-08-17T14:38:25.404Z,25.74
2018-08-17T14:40:54.945Z,25.79
2018-08-17T14:43:24.022Z,25.70
2018-08-17T14:45:54.772Z,25.52
2018-08-17T14:48:26.735Z,25.48
2018-08-17T14:50:57.333Z,25.32
2018-08-17T14:53:26.913Z,25.33
2018-08-17T14:55:56.455Z,25.36
2018-08-17T14:58:26.778Z,25.28
2018-08-17T15:00:55.167Z,25.15
2018-08-17T15:03:24.245Z,25.09
2018-08-17T15:05:52.888Z,25.01
2018-08-17T15:08:22.650Z,24.92
2018-08-17T15:10:51.675Z,24.95
2018-08-17T15:13:22.002Z,24.87
2018-08-17T15:15:52.455Z,24.74
2018-08-17T15:18:21.920Z,24.55
2018-08-17T15:20:50.982Z,24.30
2018-08-17T15:23:22.444Z,24.30
2018-08-17T15:25:52.230Z,24.24
2018-08-17T15:28:24.178Z,24.27
2018-08-17T15:30:53.341Z,24.27
2018-08-17T15:33:26.013Z,24.23
2018-08-17T15:35:55.406Z,24.34
2018-08-17T15:38:24.058Z,24.40
2018-08-17T15:40:59.564Z,24.46
2018-08-17T15:43:32.404Z,24.54
2018-08-17T15:46:03.894Z,24.55
2018-08-17T15:48:45.463Z,24.56
2018-08-17T15:51:16.132Z,24.57
2018-08-17T15:53:44.561Z,24.62
2018-08-17T15:56:13.792Z,24.67
2018-08-17T15:58:45.089Z,24.73
2018-08-17T16:01:16.711Z,24.87
2018-08-17T16:03:49.135Z,25.02
2018-08-17T16:06:17.689Z,25.21
2018-08-17T16:08:48.852Z,25.26
2018-08-17T16:11:20.766Z,25.18
2018-08-17T16:13:53.057Z,25.12
2018-08-17T16:16:23.414Z,25.07
2018-08-17T16:18:53.269Z,25.13
2018-08-17T16:21:22.770Z,24.98
2018-08-17T16:23:51.620Z,24.95
2018-08-17T16:26:20.239Z,24.94
2018-08-17T16:28:49.808Z,25.00
2018-08-17T16:31:19.092Z,25.09
2018-08-17T16:33:50.399Z,25.26
2018-08-17T16:36:20.458Z,25.28
2018-08-17T16:38:49.687Z,25.22
2018-08-17T16:41:19.688Z,25.16
2018-08-17T16:43:52.837Z,24.96
2018-08-17T16:46:25.885Z,24.96
2018-08-17T16:49:08.358Z,25.03
2018-08-17T16:51:42.596Z,25.08
2018-08-17T16:54:12.085Z,25.07
2018-08-17T16:56:42.935Z,24.99
2018-08-17T16:59:12.880Z,24.80
2018-08-17T17:01:41.373Z,24.59
2018-08-17T17:04:10.025Z,24.68
2018-08-17T17:06:39.367Z,24.76
2018-08-17T17:09:08.640Z,24.73
2018-08-17T17:11:37.312Z,24.67
2018-08-17T17:14:06.092Z,24.70
2018-08-17T17:16:41.073Z,24.56
2018-08-17T17:19:17.341Z,24.53
2018-08-17T17:21:47.305Z,24.49
2018-08-17T17:24:16.494Z,24.47
2018-08-17T17:26:46.598Z,24.33
2018-08-17T17:29:15.079Z,24.26
2018-08-17T17:31:48.927Z,24.19
2018-08-17T17:34:17.508Z,24.09
2018-08-17T17:36:46.227Z,23.96
2018-08-17T17:39:15.865Z,23.78
2018-08-17T17:41:44.604Z,23.75
2018-08-17T17:44:13.571Z,23.71
2018-08-17T17:46:42.270Z,23.73
2018-08-17T17:49:12.010Z,23.64
2018-08-17T17:51:40.577Z,23.68
2018-08-17T17:54:09.264Z,23.64
2018-08-17T17:56:38.851Z,23.60
2018-08-17T17:59:14.621Z,23.61
2018-08-17T18:01:43.213Z,23.62
2018-08-17T18:04:12.660Z,23.59
2018-08-17T18:06:41.765Z,23.54
2018-08-17T18:09:11.419Z,23.49
2018-08-17T18:11:41.684Z,23.48
2018-08-17T18:14:10.198Z,23.48
2018-08-17T18:16:38.739Z,23.45
2018-08-17T18:19:07.958Z,23.34
2018-08-17T18:21:38.016Z,23.19
2018-08-17T18:24:12.607Z,23.12
2018-08-17T18:26:48.629Z,23.11
2018-08-17T18:29:19.388Z,23.06
2018-08-17T18:31:48.104Z,22.98
2018-08-17T18:34:16.699Z,22.99
2018-08-17T18:36:45.293Z,22.92
2018-08-17T18:39:15.257Z,22.94
2018-08-17T18:41:45.007Z,22.95
2018-08-17T18:44:13.807Z,22.81
2018-08-17T18:46:42.590Z,22.81
2018-08-17T18:49:11.107Z,22.85
2018-08-17T18:51:39.596Z,22.73
2018-08-17T18:54:08.585Z,22.66
2018-08-17T18:56:37.936Z,22.62
2018-08-17T18:59:06.502Z,22.47
2018-08-17T19:01:35.351Z,22.39
2018-08-17T19:04:03.799Z,22.42
2018-08-17T19:06:33.700Z,22.51
2018-08-17T19:09:02.461Z,22.48
2018-08-17T19:11:31.596Z,22.44
2018-08-17T19:14:00.143Z,22.45
2018-08-17T19:16:28.634Z,22.48
2018-08-17T19:18:57.128Z,22.47
2018-08-17T19:21:25.915Z,22.43
2018-08-17T19:23:54.792Z,22.42
2018-08-17T19:26:23.314Z,22.40
2018-08-17T19:28:52.891Z,22.39
2018-08-17T19:31:21.438Z,22.36
2018-08-17T19:33:50.144Z,22.38
2018-08-17T19:36:18.639Z,22.38
2018-08-17T19:38:47.238Z,22.38
2018-08-17T19:41:15.969Z,22.32
2018-08-17T19:43:44.463Z,22.30
2018-08-17T19:46:13.175Z,22.32
2018-08-17T19:48:41.685Z,22.22
2018-08-17T19:51:15.696Z,22.18
2018-08-17T19:53:44.924Z,22.13
2018-08-17T19:56:14.024Z,22.13
2018-08-17T19:58:43.630Z,22.11
2018-08-17T20:01:12.911Z,22.07
2018-08-17T20:03:41.842Z,22.10
2018-08-17T20:06:10.729Z,22.07
2018-08-17T20:08:42.018Z,22.07
2018-08-17T20:11:12.256Z,22.02
2018-08-17T20:13:41.292Z,21.96
2018-08-17T20:16:16.028Z,21.93
2018-08-17T20:18:44.880Z,21.92
2018-08-17T20:21:13.817Z,21.93
2018-08-17T20:26:29.294Z,21.90
2018-08-17T20:53:34.210Z,21.63
2018-08-17T20:56:03.584Z,21.66
2018-08-17T20:58:32.712Z,21.66
2018-08-17T21:01:02.121Z,21.62
2018-08-17T21:03:30.681Z,21.64
2018-08-17T21:06:00.779Z,21.60
2018-08-17T21:08:29.431Z,21.54
2018-08-17T21:10:57.853Z,21.51
2018-08-17T21:13:28.025Z,21.55
2018-08-17T21:15:57.495Z,21.52
2018-08-17T21:18:26.206Z,21.49
2018-08-17T21:20:55.449Z,21.45
2018-08-17T21:23:23.980Z,21.45
2018-08-17T21:25:52.405Z,21.42
2018-08-17T21:28:20.967Z,21.46
2018-08-17T21:30:51.413Z,21.41
2018-08-17T21:33:20.323Z,21.42
2018-08-17T21:35:50.139Z,21.40
2018-08-17T21:38:19.940Z,21.38
2018-08-17T21:40:49.688Z,21.37
2018-08-17T21:43:19.186Z,21.35
2018-08-17T21:46:00.204Z,21.30
2018-08-17T21:51:35.773Z,21.22
2018-08-17T22:00:42.186Z,21.13
2018-08-17T22:03:40.308Z,21.02
2018-08-17T22:06:30.754Z,20.95
2018-08-17T22:09:17.303Z,20.90
2018-08-17T22:15:32.056Z,20.73
2018-08-17T22:18:00.957Z,20.67
2018-08-17T22:20:30.221Z,20.62
2018-08-17T22:22:59.510Z,20.58
2018-08-17T22:25:28.131Z,20.55
2018-08-17T22:27:56.774Z,20.48
2018-08-17T22:30:26.300Z,20.43
2018-08-17T22:32:54.854Z,20.35
2018-08-17T22:35:24.117Z,20.33
2018-08-17T22:37:52.825Z,20.31
2018-08-17T22:40:22.312Z,20.26
2018-08-17T22:42:51.399Z,20.25
2018-08-17T22:45:19.877Z,20.21
2018-08-17T22:47:48.320Z,20.16
2018-08-17T22:50:16.829Z,20.16
2018-08-17T22:52:45.368Z,20.15
2018-08-17T22:55:13.919Z,20.10
2018-08-17T22:57:42.441Z,20.06
2018-08-17T23:00:17.516Z,20.04
2018-08-17T23:02:47.725Z,20.06
2018-08-17T23:05:34.348Z,20.06
2018-08-17T23:08:02.890Z,19.99
2018-08-17T23:10:31.388Z,19.90
2018-08-17T23:13:00.136Z,19.86
2018-08-17T23:15:28.704Z,19.81
2018-08-17T23:17:58.600Z,19.76
2018-08-17T23:20:32.502Z,19.73
2018-08-17T23:23:02.010Z,19.71
2018-08-17T23:25:30.683Z,19.73
2018-08-17T23:27:59.414Z,19.71
2018-08-17T23:30:27.946Z,19.67
2018-08-17T23:32:57.283Z,19.68
2018-08-17T23:35:25.767Z,19.65
2018-08-17T23:37:54.253Z,19.54
2018-08-17T23:40:22.728Z,19.55
2018-08-17T23:42:51.580Z,19.56
2018-08-17T23:45:20.296Z,19.55
2018-08-17T23:47:48.800Z,19.53
2018-08-17T23:50:17.783Z,19.55
2018-08-17T23:52:46.324Z,19.54
2018-08-17T23:55:17.650Z,19.53
2018-08-17T23:57:46.227Z,19.54
